WetterOnline ( http://www.wetteronline.ch )

Wetter aktuell Butjadingen

Aktuelles Wetter: Bremerhaven (11m)

6-stündlich | Neueste Meldungen
Ortszeit Temperatur Wetter
Fr, 19.10. 14:00 12.3° C wolkig
Fr, 19.10. 8:00 7.6° C bewölkt
Fr, 19.10. 2:00 9.0° C leicht bewölkt
Do, 18.10. 20:00 11.7° C wolkenlos
Do, 18.10. 14:00 13.6° C bewölkt
Do, 18.10. 8:00 13.6° C Sprühregen
Do, 18.10. 2:00 12.8° C bedeckt
Mi, 17.10. 20:00 14.9° C bedeckt
Ortszeit Temperatur Wetter
Fr, 19.10. 17:30 11.8° C wolkig
Fr, 19.10. 17:10 11.9° C wolkig
Fr, 19.10. 17:00 11.9° C wolkig
Fr, 19.10. 16:50 11.9° C wolkig
Fr, 19.10. 16:40 12.0° C wolkig
Fr, 19.10. 16:30 12.0° C wolkig
Fr, 19.10. 16:00 12.5° C leicht bewölkt
Fr, 19.10. 15:30 12.2° C wolkig
Fr, 19.10. 15:00 12.7° C wolkig
Fr, 19.10. 14:30 12.2° C wolkig
Ortszeit Relative Feuchte Sichtweite
Fr, 19.10. 14:00 55% 10 km
Fr, 19.10. 8:00 88% 9 km
Fr, 19.10. 2:00 82% 10 km
Do, 18.10. 20:00 70% 10 km
Do, 18.10. 14:00 74% 10 km
Do, 18.10. 8:00 96% 10 km
Do, 18.10. 2:00 94% 10 km
Mi, 17.10. 20:00 94% 10 km
Ortszeit Relative Feuchte Sichtweite
Fr, 19.10. 17:30 57% 10 km
Fr, 19.10. 17:10 58% -
Fr, 19.10. 17:00 58% 10 km
Fr, 19.10. 16:50 58% -
Fr, 19.10. 16:40 58% -
Fr, 19.10. 16:30 57% 9 km
Fr, 19.10. 16:00 56% 10 km
Fr, 19.10. 15:30 55% 10 km
Fr, 19.10. 15:00 55% 9 km
Fr, 19.10. 14:30 56% 9 km
Ortszeit Niederschlagsmenge Niederschlagsart
Fr, 19.10. 14:00 0.0 l/m2 in 6 Std. -
Fr, 19.10. 8:00 0.0 l/m2 in 12 Std. -
Fr, 19.10. 2:00 0.0 l/m2 in 6 Std. -
Do, 18.10. 20:00 0.4 l/m2 in 12 Std. -
Do, 18.10. 14:00 0.4 l/m2 in 6 Std. Regen
Do, 18.10. 8:00 0.1 l/m2 in 12 Std. Regen
Do, 18.10. 2:00 0.0 l/m2 in 6 Std. -
Mi, 17.10. 20:00 0.0 l/m2 in 12 Std. -
Ortszeit Niederschlagsmenge Niederschlagsart
Fr, 19.10. 17:30 0.0 l/m2 in 1 Std. -
Fr, 19.10. 17:10 keine Meldung -
Fr, 19.10. 17:00 0.0 l/m2 in 1 Std. -
Fr, 19.10. 16:50 keine Meldung -
Fr, 19.10. 16:40 keine Meldung -
Fr, 19.10. 16:30 0.0 l/m2 in 1 Std. -
Fr, 19.10. 16:00 0.0 l/m2 in 1 Std. -
Fr, 19.10. 15:30 0.0 l/m2 in 1 Std. -
Fr, 19.10. 15:00 0.0 l/m2 in 1 Std. -
Fr, 19.10. 14:30 0.0 l/m2 in 1 Std. -
Ortszeit Stärke Spitze Richtung
km/h Bft. km/h Grad Sektor
Fr, 19.10. 14:00 7 2 18 60° NO
Fr, 19.10. 8:00 7 2 14 60° NO
Fr, 19.10. 2:00 9 2 22 40° NO
Do, 18.10. 20:00 14 3 32 360° N
Do, 18.10. 14:00 19 3 35 30° NO
Do, 18.10. 8:00 11 2 22 310° NW
Do, 18.10. 2:00 9 2 22 300° NW
Mi, 17.10. 20:00 14 3 32 330° NW
Ortszeit Stärke Spitze Richtung
km/h Bft. km/h Grad Sektor
Fr, 19.10. 17:30 7 2 11 30° NO
Fr, 19.10. 17:10 7 2 - 50° NO
Fr, 19.10. 17:00 11 2 18 30° NO
Fr, 19.10. 16:50 11 2 - 30° NO
Fr, 19.10. 16:40 9 2 - 50° NO
Fr, 19.10. 16:30 7 2 14 40° NO
Fr, 19.10. 16:00 7 2 18 100° O
Fr, 19.10. 15:30 7 2 18 20° N
Fr, 19.10. 15:00 6 1 17 50° NO
Fr, 19.10. 14:30 7 2 14 70° O
Ortszeit Untergrenze Bedeckung Gattung
total tief tief mittel hoch
Fr, 19.10. 14:00 10500 m 8/8 0/8 - - -
Fr, 19.10. 8:00 1020 m 7/8 7/8 - - -
Fr, 19.10. 2:00 1020 m 3/8 3/8 - - -
Do, 18.10. 20:00 - 0/8 0/8 - - -
Do, 18.10. 14:00 540 m 8/8 7/8 - - -
Do, 18.10. 8:00 150 m 8/8 8/8 - - -
Do, 18.10. 2:00 6300 m 8/8 8/8 - - -
Mi, 17.10. 20:00 6300 m 8/8 8/8 - - -
Ortszeit Bedeckungsgrad in Achtel und Wolkenuntergrenze
Fr, 19.10. 17:30 8(7500m) 8(9000m) 8(10500m)
Fr, 19.10. 17:10 8(7500m) 8(9000m) 8(10500m)
Fr, 19.10. 17:00 1(1050m) 8(7500m) 8(10500m)
Fr, 19.10. 16:50 1(1050m) 8(7500m) 8(10500m)
Fr, 19.10. 16:40 3(1050m) 8(7500m)
Fr, 19.10. 16:30 2(1020m) 7(7200m) 8(8700m)
Fr, 19.10. 16:00 1(1020m) 8(9000m) 8(10500m)
Fr, 19.10. 15:30 3(1050m) 7(7500m) 8(9000m)
Fr, 19.10. 15:00 4(1050m) 7(7500m) 8(10500m)
Fr, 19.10. 14:30 5(9000m) 8(10500m) 8(10500m)
Ortszeit Luftdruck NN (hPa) Tendenz (hPa in 3 Std.)
Fr, 19.10. 14:00 1027 - 0,7
Fr, 19.10. 8:00 1027 + 0,3
Fr, 19.10. 2:00 1027 - 0,2
Do, 18.10. 20:00 1026 + 1,3
Do, 18.10. 14:00 1025 + 1,0
Do, 18.10. 8:00 1022 + 0,5
Do, 18.10. 2:00 1021 + 0,4
Mi, 17.10. 20:00 1020 + 1,0
Ortszeit Luftdruck NN (hPa) Tendenz (hPa in 3 Std.)
Fr, 19.10. 17:30 1026 - 0,8
Fr, 19.10. 17:10 1026 keine Meldung
Fr, 19.10. 17:00 1026 - 1,0
Fr, 19.10. 16:50 1026 keine Meldung
Fr, 19.10. 16:40 1026 keine Meldung
Fr, 19.10. 16:30 1026 - 1,0
Fr, 19.10. 16:00 1026 - 1,1
Fr, 19.10. 15:30 1026 - 1,0
Fr, 19.10. 15:00 1027 - 0,8
Fr, 19.10. 14:30 1027 - 0,9
Ortszeit Schneehöhe (cm)
Fr, 19.10. 14:00 0
Fr, 19.10. 8:00 0
Fr, 19.10. 2:00 0
Do, 18.10. 20:00 0
Do, 18.10. 14:00 0
Do, 18.10. 8:00 0
Do, 18.10. 2:00 0
Mi, 17.10. 20:00 0
Ortszeit Schneehöhe (cm)
Fr, 19.10. 17:30 0
Fr, 19.10. 17:10 0
Fr, 19.10. 17:00 0
Fr, 19.10. 16:50 0
Fr, 19.10. 16:40 0
Fr, 19.10. 16:30 0
Fr, 19.10. 16:00 0
Fr, 19.10. 15:30 0
Fr, 19.10. 15:00 0
Fr, 19.10. 14:30 0
Link zu dieser Seite / Seite empfehlen

Das Wetter in ...